Time;durP1;ratioP1;P1;durP2;ratioP2;P2;SDS_P1;SDS_P2;PMS_P1;PMS_P2;Temp;Humidity;BMP_temperature;BMP_pressure;BME280_temperature;BME280_humidity;BME280_pressure;Samples;Min_cycle;Max_cycle;Signal;HPM_P1;HPM_P2
2022/08/25 00:01:17;;;;;;;20.13;18.08;;;21.40;99.90;;;;;;6134903;23;20692;-78
2022/08/25 00:03:44;;;;;;;19.83;17.83;;;21.50;99.90;;;;;;6184390;23;20373;-77
2022/08/25 00:06:10;;;;;;;19.98;17.38;;;21.50;99.90;;;;;;6158349;23;20436;-78
2022/08/25 00:08:37;;;;;;;19.75;17.65;;;21.30;99.90;;;;;;6184412;23;20366;-78
2022/08/25 00:11:21;;;;;;;19.37;17.13;;;21.60;99.90;;;;;;6184285;23;20692;-78
2022/08/25 00:13:52;;;;;;;19.35;17.30;;;21.30;99.90;;;;;;6182317;23;20405;-78
2022/08/25 00:16:20;;;;;;;19.13;16.88;;;21.30;99.90;;;;;;6183835;23;20922;-78
2022/08/25 00:18:48;;;;;;;21.10;17.23;;;21.10;99.90;;;;;;6158312;23;20365;-78
2022/08/25 00:21:15;;;;;;;18.53;16.47;;;21.20;99.90;;;;;;6183792;23;20404;-78
2022/08/25 00:23:42;;;;;;;17.90;16.05;;;21.20;99.90;;;;;;6184488;23;20662;-78
2022/08/25 00:26:09;;;;;;;18.58;15.55;;;21.20;99.90;;;;;;6183422;23;20369;-77
2022/08/25 00:28:35;;;;;;;17.83;15.93;;;21.00;99.90;;;;;;6183498;23;20366;-77
2022/08/25 00:31:04;;;;;;;16.83;15.13;;;21.00;99.90;;;;;;6159820;23;20431;-78
2022/08/25 00:33:30;;;;;;;18.33;15.05;;;21.00;99.90;;;;;;6184188;23;20361;-78
2022/08/25 00:35:57;;;;;;;19.30;15.27;;;21.00;99.90;;;;;;6159699;23;20370;-79
2022/08/25 00:38:23;;;;;;;16.60;14.85;;;21.10;99.90;;;;;;6159690;23;20433;-78
2022/08/25 00:41:04;;;;;;;16.40;14.68;;;20.90;99.90;;;;;;6134158;23;20369;-78
2022/08/25 00:43:45;;;;;;;18.23;15.00;;;20.80;99.90;;;;;;6159807;23;20369;-77
2022/08/25 00:46:13;;;;;;;16.63;14.68;;;21.00;99.90;;;;;;6160024;23;20370;-78
2022/08/25 00:48:42;;;;;;;18.70;14.07;;;20.80;99.90;;;;;;6135105;23;20704;-78
2022/08/25 00:51:09;;;;;;;15.20;13.70;;;;;;;;;;6159571;23;20365;-78
2022/08/25 00:53:35;;;;;;;17.92;13.82;;;20.90;99.90;;;;;;6135182;23;20456;-78
2022/08/25 00:56:01;;;;;;;14.75;13.10;;;21.10;99.90;;;;;;6111118;23;20831;-78
2022/08/25 00:58:30;;;;;;;14.43;12.25;;;20.70;99.90;;;;;;6135992;23;20381;-78
2022/08/25 01:00:56;;;;;;;14.30;11.93;;;20.70;99.90;;;;;;6135825;23;20373;-78
2022/08/25 01:03:25;;;;;;;13.27;11.90;;;20.60;99.90;;;;;;6135640;23;20376;-78
2022/08/25 01:05:52;;;;;;;15.00;11.27;;;20.90;99.90;;;;;;6160314;23;20692;-78
2022/08/25 01:08:21;;;;;;;13.95;11.40;;;20.60;99.90;;;;;;6160328;23;20396;-78
2022/08/25 01:10:49;;;;;;;13.88;10.40;;;20.70;99.90;;;;;;6160060;23;20421;-79
2022/08/25 01:13:35;;;;;;;11.40;9.95;;;20.80;99.90;;;;;;6160093;23;20365;-78
2022/08/25 01:16:02;;;;;;;12.55;9.75;;;;;;;;;;6160231;23;20376;-79
2022/08/25 01:18:28;;;;;;;11.45;9.00;;;;;;;;;;6135924;23;20372;-79
2022/08/25 01:20:58;;;;;;;11.90;8.20;;;20.70;99.90;;;;;;6185238;23;20753;-79
2022/08/25 01:23:25;;;;;;;10.90;7.93;;;20.60;99.90;;;;;;6111086;23;20385;-79
2022/08/25 01:25:59;;;;;;;11.23;8.18;;;21.10;99.90;;;;;;6136839;23;20381;-78
2022/08/25 01:28:25;;;;;;;11.43;7.80;;;;;;;;;;6160847;23;20448;-76
2022/08/25 01:30:51;;;;;;;11.40;7.32;;;21.00;99.90;;;;;;6134815;23;20396;-79
2022/08/25 01:33:17;;;;;;;14.18;7.53;;;20.70;99.90;;;;;;6160929;23;20704;-78
2022/08/25 01:35:44;;;;;;;10.02;7.05;;;20.60;99.90;;;;;;6158398;23;20708;-79
2022/08/25 01:38:11;;;;;;;11.03;6.40;;;20.70;99.90;;;;;;6160678;23;20751;-78
2022/08/25 01:40:38;;;;;;;10.68;6.70;;;20.70;99.90;;;;;;6184176;23;20409;-78
2022/08/25 01:43:13;;;;;;;11.00;6.50;;;20.50;99.90;;;;;;6185743;23;20369;-78
2022/08/25 01:45:41;;;;;;;10.50;6.45;;;20.60;99.90;;;;;;6185179;23;20767;-78
2022/08/25 01:48:08;;;;;;;8.82;5.80;;;;;;;;;;6183040;23;20400;-79
2022/08/25 01:50:34;;;;;;;8.65;6.28;;;20.70;99.90;;;;;;6136064;23;20432;-78
2022/08/25 01:53:06;;;;;;;7.53;5.87;;;20.70;99.90;;;;;;6159052;23;20478;-77
2022/08/25 01:55:50;;;;;;;10.27;5.90;;;20.80;99.90;;;;;;6159921;23;20455;-77
2022/08/25 01:58:30;;;;;;;11.45;5.65;;;20.70;99.90;;;;;;6184650;23;20373;-78
2022/08/25 02:00:58;;;;;;;11.57;5.90;;;20.70;99.90;;;;;;6160136;23;20369;-78
2022/08/25 02:03:24;;;;;;;8.30;5.50;;;20.70;99.90;;;;;;6184187;23;20377;-78
2022/08/25 02:05:52;;;;;;;9.23;5.45;;;;;;;;;;6184198;23;20372;-77
2022/08/25 02:08:18;;;;;;;8.63;5.07;;;20.80;99.90;;;;;;6208917;23;20447;-78
2022/08/25 02:10:45;;;;;;;8.43;4.95;;;20.80;99.90;;;;;;6159074;23;20365;-75
2022/08/25 02:13:11;;;;;;;9.20;5.05;;;20.70;99.90;;;;;;6183147;23;20368;-78
2022/08/25 02:15:43;;;;;;;10.05;5.25;;;20.50;99.90;;;;;;6159574;23;20361;-78
2022/08/25 02:18:09;;;;;;;9.55;5.05;;;;;;;;;;6183945;23;20365;-79
2022/08/25 02:20:36;;;;;;;8.68;4.95;;;20.30;99.90;;;;;;6159426;23;20369;-78
2022/08/25 02:23:02;;;;;;;8.52;4.88;;;20.50;99.90;;;;;;6133558;23;20377;-78
2022/08/25 02:25:28;;;;;;;10.68;5.05;;;20.40;99.90;;;;;;6182919;23;20373;-78
2022/08/25 02:27:54;;;;;;;11.30;5.10;;;20.60;99.90;;;;;;6182074;23;20389;-78
2022/08/25 02:30:20;;;;;;;6.73;4.90;;;20.60;99.90;;;;;;6182398;23;20747;-78
2022/08/25 02:32:46;;;;;;;10.05;5.20;;;20.50;99.90;;;;;;6157290;23;20444;-78
2022/08/25 02:35:12;;;;;;;6.85;4.93;;;;;;;;;;6182798;23;20381;-79
2022/08/25 02:37:38;;;;;;;7.70;4.75;;;20.20;99.90;;;;;;6182550;23;20700;-78
2022/08/25 02:40:05;;;;;;;11.60;4.90;;;20.50;99.90;;;;;;6133606;23;20827;-78
2022/08/25 02:42:30;;;;;;;7.35;4.93;;;20.30;99.90;;;;;;6156926;23;20840;-77
2022/08/25 02:44:56;;;;;;;10.60;4.90;;;20.20;99.90;;;;;;6183543;23;20365;-78
2022/08/25 02:47:23;;;;;;;10.00;4.90;;;;;;;;;;6158628;23;20401;-78
2022/08/25 02:49:49;;;;;;;7.15;4.50;;;20.30;99.90;;;;;;6209429;23;20448;-78
2022/08/25 02:52:15;;;;;;;9.00;4.70;;;20.40;99.90;;;;;;6159290;23;20759;-77
2022/08/25 02:54:41;;;;;;;7.97;4.70;;;;;;;;;;6184611;23;20357;-77
2022/08/25 02:57:09;;;;;;;8.25;4.60;;;20.10;99.90;;;;;;6159982;23;20376;-77
2022/08/25 02:59:35;;;;;;;8.68;4.63;;;20.20;99.90;;;;;;6185918;23;20365;-77
2022/08/25 03:02:01;;;;;;;7.70;4.50;;;;;;;;;;6184979;23;20408;-77
2022/08/25 03:04:27;;;;;;;8.40;4.35;;;20.20;99.90;;;;;;6183538;23;20450;-78
2022/08/25 03:06:54;;;;;;;9.68;4.63;;;20.10;99.90;;;;;;6159763;23;20412;-77
2022/08/25 03:09:19;;;;;;;8.80;4.60;;;20.00;99.90;;;;;;6185411;23;20440;-77
2022/08/25 03:11:46;;;;;;;8.57;4.50;;;;;;;;;;6134680;23;20405;-77
2022/08/25 03:14:12;;;;;;;9.48;4.50;;;;;;;;;;6209990;23;20370;-77
2022/08/25 03:16:38;;;;;;;6.32;4.60;;;20.00;99.90;;;;;;6186676;23;20368;-77
2022/08/25 03:19:05;;;;;;;8.77;4.47;;;;;;;;;;6184459;23;20752;-77
2022/08/25 03:21:31;;;;;;;8.77;4.40;;;;;;;;;;6186877;23;20362;-77
2022/08/25 03:23:58;;;;;;;7.10;4.33;;;;;;;;;;6209660;23;20463;-77
2022/08/25 03:29:09;;;;;;;9.33;4.40;;;20.00;99.90;;;;;;6187328;23;20372;-79
2022/08/25 03:31:35;;;;;;;6.25;4.38;;;19.90;99.90;;;;;;6161504;23;20366;-78
2022/08/25 03:34:01;;;;;;;6.32;4.00;;;20.20;99.90;;;;;;6184353;23;20381;-78
2022/08/25 03:36:27;;;;;;;7.70;4.35;;;20.20;99.90;;;;;;6185356;23;20373;-78
2022/08/25 03:38:54;;;;;;;8.10;4.50;;;;;;;;;;6161022;23;20444;-79
2022/08/25 03:41:24;;;;;;;9.82;4.70;;;19.60;99.90;;;;;;6186063;23;20843;-78
2022/08/25 03:43:50;;;;;;;7.80;4.60;;;19.80;99.90;;;;;;6161368;23;20832;-79
2022/08/25 03:46:26;;;;;;;9.90;4.50;;;19.70;99.90;;;;;;6161746;23;20376;-79
2022/08/25 03:48:52;;;;;;;10.63;4.25;;;;;;;;;;6161471;23;20448;-80
2022/08/25 03:51:26;;;;;;;7.88;4.32;;;;;;;;;;6185017;23;20365;-77
2022/08/25 03:53:53;;;;;;;9.05;4.43;;;19.70;99.90;;;;;;6181813;23;20373;-76
2022/08/25 03:56:19;;;;;;;9.98;4.60;;;19.60;99.90;;;;;;6183289;23;20389;-76
2022/08/25 03:58:46;;;;;;;8.50;4.38;;;;;;;;;;6183402;23;20688;-77
2022/08/25 04:01:12;;;;;;;10.55;4.75;;;19.60;99.90;;;;;;6207916;23;20856;-76
2022/08/25 04:03:38;;;;;;;7.70;4.30;;;;;;;;;;6158055;23;20692;-75
2022/08/25 04:06:05;;;;;;;7.50;4.60;;;;;;;;;;6182626;23;20372;-76
2022/08/25 04:08:31;;;;;;;8.35;4.40;;;;;;;;;;6182762;23;20397;-77
2022/08/25 04:10:57;;;;;;;11.82;4.70;;;19.20;99.90;;;;;;6182814;23;20366;-77
2022/08/25 04:13:23;;;;;;;9.00;4.68;;;19.50;99.90;;;;;;6158552;23;20373;-77
2022/08/25 04:15:49;;;;;;;12.57;4.70;;;;;;;;;;6134069;23;20453;-77
2022/08/25 04:18:15;;;;;;;7.75;4.35;;;19.20;99.90;;;;;;6183099;23;20369;-77
2022/08/25 04:20:42;;;;;;;7.82;4.90;;;19.40;99.90;;;;;;6182423;23;20392;-77
2022/08/25 04:23:09;;;;;;;6.72;4.47;;;19.40;99.90;;;;;;6158932;23;20377;-76
2022/08/25 04:25:41;;;;;;;9.27;4.97;;;19.20;99.90;;;;;;6159021;23;20866;-76
2022/08/25 04:28:07;;;;;;;13.98;4.80;;;21.60;99.90;;;;;;6157298;23;20765;-77
2022/08/25 04:30:33;;;;;;;7.70;4.53;;;19.20;99.90;;;;;;6181576;23;20384;-75
2022/08/25 04:32:59;;;;;;;9.57;4.30;;;19.30;99.90;;;;;;6183273;23;20432;-79
2022/08/25 04:35:25;;;;;;;9.13;4.50;;;19.30;99.90;;;;;;6159217;23;20386;-78
2022/08/25 04:37:51;;;;;;;7.22;4.50;;;19.30;99.90;;;;;;6181678;23;20376;-81
2022/08/25 04:40:17;;;;;;;6.32;4.40;;;;;;;;;;6185865;23;20376;-80
2022/08/25 04:42:43;;;;;;;10.23;4.53;;;;;;;;;;6184576;23;20688;-81
2022/08/25 04:45:10;;;;;;;7.57;4.50;;;;;;;;;;6162202;23;20865;-81
2022/08/25 04:47:37;;;;;;;9.30;4.72;;;;;;;;;;6187311;23;20867;-81
2022/08/25 04:50:05;;;;;;;7.60;4.43;;;19.20;99.90;;;;;;6162707;23;20372;-81
2022/08/25 04:52:31;;;;;;;6.88;4.53;;;;;;;;;;6187095;23;20385;-81
2022/08/25 04:54:58;;;;;;;9.02;4.40;;;;;;;;;;6158089;23;20381;-79
2022/08/25 04:57:24;;;;;;;9.27;4.70;;;19.00;99.90;;;;;;6207190;23;20468;-80
2022/08/25 04:59:51;;;;;;;6.82;4.60;;;;;;;;;;6159697;23;20903;-81
2022/08/25 05:02:17;;;;;;;8.03;4.50;;;;;;;;;;6185214;23;20696;-78
2022/08/25 05:04:43;;;;;;;8.35;4.60;;;19.40;99.90;;;;;;6208256;23;20819;-78
2022/08/25 05:07:09;;;;;;;9.55;4.60;;;;;;;;;;6132224;23;20429;-78
2022/08/25 05:09:36;;;;;;;8.23;4.80;;;;;;;;;;6180812;23;20365;-77
2022/08/25 05:12:03;;;;;;;8.52;4.75;;;;;;;;;;6206337;23;20724;-77
2022/08/25 05:14:30;;;;;;;6.55;4.60;;;19.20;99.90;;;;;;6181772;23;20409;-76
2022/08/25 05:16:56;;;;;;;9.48;4.60;;;;;;;;;;6182013;23;20369;-76
2022/08/25 05:19:22;;;;;;;8.35;4.32;;;19.50;99.90;;;;;;6180284;23;20444;-76
2022/08/25 05:21:49;;;;;;;8.18;5.03;;;;;;;;;;6181726;23;20378;-75
2022/08/25 05:24:15;;;;;;;10.88;5.35;;;19.30;99.90;;;;;;6182056;23;20665;-77
2022/08/25 05:26:40;;;;;;;11.50;5.15;;;19.20;99.90;;;;;;6157097;23;20471;-77
2022/08/25 05:29:06;;;;;;;7.47;4.72;;;19.30;99.90;;;;;;6179219;23;20427;-77
2022/08/25 05:31:34;;;;;;;9.95;4.72;;;;;;;;;;6157718;23;20400;-77
2022/08/25 05:34:05;;;;;;;9.00;4.82;;;19.40;99.90;;;;;;6206816;23;20392;-77
2022/08/25 05:36:32;;;;;;;9.52;5.00;;;;;;;;;;6156348;23;20373;-77
2022/08/25 05:38:58;;;;;;;7.00;4.70;;;19.40;99.90;;;;;;6157517;23;20373;-76
2022/08/25 05:41:27;;;;;;;7.38;4.90;;;19.60;99.90;;;;;;6180015;23;20396;-76
2022/08/25 05:43:53;;;;;;;9.75;5.38;;;;;;;;;;6180552;23;20370;-75
2022/08/25 05:46:20;;;;;;;9.57;4.80;;;;;;;;;;6178339;23;20377;-75
2022/08/25 05:48:46;;;;;;;9.05;5.00;;;;;;;;;;6204569;23;20392;-76
2022/08/25 05:51:13;;;;;;;13.37;4.90;;;;;;;;;;6155172;23;20380;-77
2022/08/25 05:53:42;;;;;;;9.13;4.68;;;19.80;99.90;;;;;;6155298;23;20401;-76
2022/08/25 05:56:08;;;;;;;8.45;4.60;;;19.60;99.90;;;;;;6156138;23;20369;-76
2022/08/25 05:58:35;;;;;;;7.78;4.45;;;;;;;;;;6155751;23;20420;-76
2022/08/25 06:02:39;;;;;;;9.43;4.80;;;19.90;99.90;;;;;;6180936;23;20688;-76
2022/08/25 06:03:47;;;;;;;9.10;4.30;;;20.00;99.90;;;;;;6159892;23;20373;-76
2022/08/25 06:06:14;;;;;;;9.38;5.03;;;20.10;99.90;;;;;;6181127;23;20830;-76
2022/08/25 06:08:41;;;;;;;8.52;4.75;;;20.20;99.90;;;;;;6153306;23;20388;-76
2022/08/25 06:11:07;;;;;;;9.05;4.68;;;20.10;99.90;;;;;;6156694;23;20709;-76
2022/08/25 06:13:33;;;;;;;10.87;4.90;;;20.50;99.90;;;;;;6181149;23;20403;-76
2022/08/25 06:15:59;;;;;;;9.97;4.87;;;20.10;99.90;;;;;;6155162;23;20403;-76
2022/08/25 06:18:25;;;;;;;7.55;4.38;;;20.40;99.90;;;;;;6178820;23;20460;-75
2022/08/25 06:20:51;;;;;;;8.52;4.70;;;20.60;99.90;;;;;;6132007;23;20921;-77
2022/08/25 06:23:19;;;;;;;10.38;4.90;;;20.50;99.90;;;;;;6182232;23;20373;-78
2022/08/25 06:25:55;;;;;;;8.45;4.68;;;20.40;99.90;;;;;;6159474;23;20452;-78
2022/08/25 06:28:21;;;;;;;8.68;4.70;;;20.70;99.90;;;;;;6181224;23;20784;-77
2022/08/25 06:30:47;;;;;;;9.55;4.60;;;;;;;;;;6157770;23;20397;-78
2022/08/25 06:33:16;;;;;;;7.40;4.50;;;;;;;;;;6183223;23;20866;-79
2022/08/25 06:35:42;;;;;;;9.93;4.70;;;21.40;99.90;;;;;;6156188;23;20695;-78
2022/08/25 06:38:09;;;;;;;9.35;4.70;;;21.40;99.90;;;;;;6181580;23;20432;-79
2022/08/25 06:40:35;;;;;;;8.52;4.32;;;;;;;;;;6155081;23;20370;-77
2022/08/25 06:43:00;;;;;;;10.18;4.80;;;21.40;99.90;;;;;;6180730;23;20461;-78
2022/08/25 06:45:26;;;;;;;10.18;4.90;;;21.40;99.90;;;;;;6157603;23;20377;-77
2022/08/25 06:47:53;;;;;;;8.15;4.22;;;21.60;99.90;;;;;;6180727;23;20458;-77
2022/08/25 06:50:19;;;;;;;8.27;4.47;;;21.80;99.90;;;;;;6154652;23;20720;-78
2022/08/25 06:52:44;;;;;;;8.15;4.20;;;21.60;99.90;;;;;;6181902;23;20436;-77
2022/08/25 06:55:11;;;;;;;8.73;4.23;;;21.80;99.90;;;;;;6183022;23;20799;-77
2022/08/25 06:57:36;;;;;;;9.40;4.70;;;23.90;99.90;;;;;;6181385;23;20365;-77
2022/08/25 07:00:08;;;;;;;10.40;4.27;;;22.40;99.90;;;;;;6157616;23;20444;-77
2022/08/25 07:02:33;;;;;;;9.10;4.57;;;22.10;99.90;;;;;;6155906;23;20381;-77
2022/08/25 07:04:59;;;;;;;11.47;4.30;;;22.40;99.90;;;;;;6133067;23;20424;-77
2022/08/25 07:07:24;;;;;;;8.43;4.40;;;22.50;99.90;;;;;;6156037;23;20862;-77
2022/08/25 07:09:50;;;;;;;8.40;4.30;;;22.60;99.90;;;;;;6156512;23;20902;-77
2022/08/25 07:12:16;;;;;;;8.97;4.67;;;24.40;99.90;;;;;;6132498;23;20365;-76
2022/08/25 07:14:43;;;;;;;8.90;4.00;;;23.00;99.90;;;;;;6157468;23;20448;-77
2022/08/25 07:17:09;;;;;;;8.13;4.40;;;22.80;99.90;;;;;;6183198;23;20728;-78
2022/08/25 07:19:34;;;;;;;11.40;4.22;;;23.20;99.90;;;;;;6156102;23;20376;-77
2022/08/25 07:22:00;;;;;;;7.57;4.30;;;23.30;99.90;;;;;;6180686;23;20370;-78
2022/08/25 07:24:26;;;;;;;7.87;4.13;;;23.40;99.90;;;;;;6181551;23;20916;-78
2022/08/25 07:26:52;;;;;;;8.05;4.05;;;23.60;99.90;;;;;;6181615;23;20396;-77
2022/08/25 07:29:23;;;;;;;10.82;4.13;;;23.40;99.90;;;;;;6183100;23;20397;-77
2022/08/25 07:31:49;;;;;;;8.63;4.00;;;23.80;99.90;;;;;;6182232;23;20424;-76
2022/08/25 07:37:03;;;;;;;8.95;4.10;;;24.00;99.90;;;;;;6182655;23;20467;-76
2022/08/25 07:39:29;;;;;;;7.95;4.00;;;23.90;99.90;;;;;;6182292;23;20382;-76
2022/08/25 07:41:55;;;;;;;8.27;4.13;;;24.30;99.90;;;;;;6182383;23;20373;-77
2022/08/25 07:44:22;;;;;;;7.93;3.63;;;24.50;99.90;;;;;;6181610;23;20376;-75
2022/08/25 07:46:49;;;;;;;7.40;3.97;;;24.40;99.90;;;;;;6181903;23;20421;-77
2022/08/25 07:49:15;;;;;;;5.90;4.03;;;24.60;99.90;;;;;;6157749;23;20376;-78
2022/08/25 07:51:41;;;;;;;8.27;4.00;;;24.60;99.90;;;;;;6159231;23;20401;-77
2022/08/25 07:54:07;;;;;;;7.43;3.72;;;24.60;99.90;;;;;;6181740;23;20428;-77
2022/08/25 07:56:32;;;;;;;7.45;3.80;;;24.70;99.90;;;;;;6155884;23;20384;-77
2022/08/25 07:58:58;;;;;;;7.83;3.80;;;24.90;99.90;;;;;;6156956;23;20389;-77
2022/08/25 08:01:24;;;;;;;10.07;4.00;;;25.00;99.90;;;;;;6157149;23;20459;-77
2022/08/25 08:03:51;;;;;;;6.30;3.90;;;25.30;99.90;;;;;;6158501;23;20768;-77
2022/08/25 08:06:19;;;;;;;7.07;3.80;;;25.30;99.90;;;;;;6182366;23;20365;-76
2022/08/25 08:08:48;;;;;;;8.43;4.03;;;25.60;99.90;;;;;;6179618;23;20390;-76
2022/08/25 08:11:29;;;;;;;7.25;3.80;;;25.50;99.90;;;;;;6181323;23;20376;-77
2022/08/25 08:13:56;;;;;;;12.02;4.00;;;25.80;99.90;;;;;;6182238;23;20376;-77
2022/08/25 08:16:24;;;;;;;6.97;4.00;;;25.50;99.90;;;;;;6181685;23;20373;-76
2022/08/25 08:18:51;;;;;;;7.82;4.07;;;25.60;99.90;;;;;;6181073;23;20673;-77
2022/08/25 08:21:21;;;;;;;8.73;3.93;;;25.80;99.90;;;;;;6157120;23;20839;-76
2022/08/25 08:23:48;;;;;;;7.15;3.90;;;25.80;99.90;;;;;;6180779;23;20843;-76
2022/08/25 08:26:14;;;;;;;6.50;3.60;;;26.00;99.90;;;;;;6157072;23;20373;-76
2022/08/25 08:28:39;;;;;;;8.13;3.87;;;26.00;99.90;;;;;;6131264;23;20898;-76
2022/08/25 08:31:05;;;;;;;7.00;3.80;;;26.20;99.90;;;;;;6156231;23;20369;-77
2022/08/25 08:33:33;;;;;;;7.13;4.18;;;26.70;99.90;;;;;;6132581;23;20372;-77
2022/08/25 08:36:02;;;;;;;9.43;4.22;;;26.60;99.90;;;;;;6156472;23;20509;-77
2022/08/25 08:38:28;;;;;;;7.28;3.83;;;26.50;99.90;;;;;;6156525;23;20373;-76
2022/08/25 08:44:40;;;;;;;10.73;4.00;;;26.60;99.90;;;;;;6101448;23;20910;-78
2022/08/25 08:47:31;;;;;;;8.73;3.80;;;27.40;99.90;;;;;;6155072;23;20472;-77
2022/08/25 08:50:19;;;;;;;8.43;3.67;;;26.90;99.90;;;;;;6132085;23;20366;-78
2022/08/25 08:53:21;;;;;;;7.07;3.40;;;26.80;99.90;;;;;;6153769;23;20383;-78
2022/08/25 08:55:57;;;;;;;8.23;3.30;;;26.90;99.90;;;;;;6131464;23;20372;-78
2022/08/25 08:58:46;;;;;;;9.03;3.30;;;27.20;99.90;;;;;;6156343;23;20373;-79
2022/08/25 09:01:17;;;;;;;6.75;3.47;;;27.40;99.90;;;;;;6130786;23;20380;-79
2022/08/25 09:03:52;;;;;;;6.28;3.40;;;27.90;99.90;;;;;;6131214;23;20373;-79
2022/08/25 09:06:39;;;;;;;6.78;3.60;;;28.00;99.90;;;;;;6131849;23;20436;-79
2022/08/25 09:09:08;;;;;;;6.22;3.92;;;28.10;99.90;;;;;;6157991;23;20374;-79
2022/08/25 09:11:35;;;;;;;9.30;3.60;;;28.60;99.90;;;;;;6157059;23;20369;-80
2022/08/25 09:14:29;;;;;;;6.43;3.13;;;28.20;99.90;;;;;;6158489;23;20404;-80
2022/08/25 09:17:04;;;;;;;5.65;3.10;;;28.40;99.90;;;;;;6158325;23;20370;-79
2022/08/25 09:19:39;;;;;;;7.38;3.33;;;28.70;99.90;;;;;;6157593;23;20384;-80
2022/08/25 09:22:15;;;;;;;7.10;3.40;;;29.10;99.90;;;;;;6155655;23;20373;-82
2022/08/25 09:25:09;;;;;;;6.30;3.00;;;28.80;99.90;;;;;;6157260;23;20842;-79
2022/08/25 09:28:04;;;;;;;7.43;2.90;;;28.80;99.90;;;;;;6155541;23;20396;-78
2022/08/25 09:30:46;;;;;;;8.57;2.97;;;28.70;99.90;;;;;;6155664;23;20384;-78
2022/08/25 09:33:18;;;;;;;8.15;3.08;;;28.70;99.90;;;;;;6156507;23;20844;-79
2022/08/25 09:35:45;;;;;;;7.00;3.30;;;28.80;99.90;;;;;;6155375;23;20442;-79
2022/08/25 09:38:12;;;;;;;7.00;3.13;;;29.10;99.90;;;;;;6132075;23;20369;-78
2022/08/25 09:40:43;;;;;;;6.18;3.10;;;29.00;99.90;;;;;;6156230;23;20376;-79
2022/08/25 09:43:20;;;;;;;6.20;3.47;;;29.30;99.90;;;;;;6157141;23;20855;-80
2022/08/25 09:45:55;;;;;;;9.87;3.17;;;29.30;99.90;;;;;;6157096;23;20476;-80
2022/08/25 09:48:28;;;;;;;6.93;2.80;;;29.20;99.90;;;;;;6130797;23;20390;-81
2022/08/25 09:51:01;;;;;;;6.28;3.10;;;29.30;99.90;;;;;;6132126;23;20444;-80
2022/08/25 09:53:28;;;;;;;6.57;3.03;;;29.20;99.90;;;;;;6132222;23;20400;-81
2022/08/25 09:56:12;;;;;;;6.68;2.85;;;29.50;99.90;;;;;;6157699;23;20373;-80
2022/08/25 09:58:38;;;;;;;6.60;2.60;;;30.00;99.90;;;;;;6134810;23;20369;-80
2022/08/25 10:01:17;;;;;;;6.80;3.22;;;30.10;99.90;;;;;;6135089;23;20369;-79
2022/08/25 10:04:04;;;;;;;10.00;3.20;;;30.10;99.90;;;;;;6159628;23;20373;-79
2022/08/25 10:06:44;;;;;;;8.43;2.80;;;29.80;99.90;;;;;;6158673;23;20369;-80
2022/08/25 10:09:21;;;;;;;5.60;2.53;;;30.00;99.90;;;;;;6159610;23;20370;-80
2022/08/25 10:11:51;;;;;;;7.73;2.87;;;30.40;99.90;;;;;;6133890;23;20851;-79
2022/08/25 10:14:39;;;;;;;11.05;2.70;;;29.70;99.90;;;;;;6109149;23;20365;-80
2022/08/25 10:17:23;;;;;;;5.30;2.60;;;30.00;99.90;;;;;;6133228;23;20842;-78
2022/08/25 10:19:52;;;;;;;7.05;2.60;;;30.00;99.90;;;;;;6133533;23;20365;-80
2022/08/25 10:22:31;;;;;;;7.82;2.80;;;29.80;99.90;;;;;;6155870;23;20369;-79
2022/08/25 10:25:01;;;;;;;4.97;2.30;;;30.30;99.90;;;;;;6134612;23;20365;-80
2022/08/25 10:27:36;;;;;;;6.40;2.65;;;30.20;99.90;;;;;;6133161;23;20406;-79
2022/08/25 10:30:05;;;;;;;8.65;2.53;;;30.00;99.60;;;;;;6131699;23;20866;-78
2022/08/25 10:32:49;;;;;;;6.20;2.40;;;30.40;99.90;;;;;;6157401;23;20369;-78
2022/08/25 10:35:21;;;;;;;4.65;2.30;;;30.90;99.90;;;;;;6153060;23;20394;-78
2022/08/25 10:38:21;;;;;;;6.95;2.40;;;30.20;99.70;;;;;;6127816;23;20837;-78
2022/08/25 10:40:56;;;;;;;9.73;2.60;;;30.70;99.60;;;;;;6104089;23;20371;-78
2022/08/25 10:43:43;;;;;;;6.38;2.72;;;30.90;99.90;;;;;;6129506;23;20445;-79
2022/08/25 10:46:31;;;;;;;6.82;2.88;;;30.70;99.70;;;;;;6128461;23;20699;-79
2022/08/25 10:49:01;;;;;;;5.07;2.60;;;30.40;99.30;;;;;;6128131;23;20462;-79
2022/08/25 10:51:48;;;;;;;5.57;2.58;;;30.50;99.80;;;;;;6105990;23;20374;-80
2022/08/25 10:54:31;;;;;;;5.15;2.63;;;31.20;99.80;;;;;;6152100;23;20399;-77
2022/08/25 10:57:04;;;;;;;6.53;2.67;;;30.70;99.00;;;;;;6148903;23;20469;-76
2022/08/25 10:59:51;;;;;;;8.25;2.90;;;31.20;99.40;;;;;;6149824;23;20375;-77
2022/08/25 11:02:50;;;;;;;4.50;2.70;;;31.00;99.00;;;;;;6126217;23;20379;-76
2022/08/25 11:05:44;;;;;;;5.00;2.88;;;30.50;98.30;;;;;;6102142;23;20741;-76
2022/08/25 11:08:41;;;;;;;5.63;2.80;;;30.80;98.40;;;;;;6096141;23;20399;-76
2022/08/25 11:11:12;;;;;;;8.35;2.65;;;30.80;98.30;;;;;;6126872;23;20377;-75
2022/08/25 11:13:46;;;;;;;6.95;2.40;;;31.10;98.90;;;;;;6123440;23;20425;-76
2022/08/25 11:16:23;;;;;;;6.03;2.60;;;31.00;99.10;;;;;;6151249;23;20375;-75
2022/08/25 11:18:59;;;;;;;10.85;2.95;;;31.30;98.50;;;;;;6150244;23;20677;-76
2022/08/25 11:21:38;;;;;;;6.50;2.65;;;31.40;98.50;;;;;;6125076;23;20525;-77
2022/08/25 11:24:27;;;;;;;17.15;4.05;;;31.40;98.90;;;;;;6149811;23;20379;-77
2022/08/25 11:26:56;;;;;;;6.78;2.67;;;31.40;98.00;;;;;;6148460;23;20888;-77
2022/08/25 11:29:25;;;;;;;7.07;2.60;;;31.80;98.60;;;;;;6103797;23;20370;-76
2022/08/25 11:31:52;;;;;;;8.98;3.33;;;31.60;97.60;;;;;;6124019;23;20367;-76
2022/08/25 11:34:19;;;;;;;5.78;2.50;;;31.30;97.90;;;;;;6141624;23;20456;-76
2022/08/25 11:36:59;;;;;;;16.67;3.40;;;31.50;97.40;;;;;;6179403;23;20379;-77
2022/08/25 11:39:40;;;;;;;5.82;2.60;;;31.20;97.20;;;;;;6157146;23;20424;-78
2022/08/25 11:42:18;;;;;;;6.30;2.30;;;31.00;96.60;;;;;;6151545;23;20847;-76
2022/08/25 11:45:06;;;;;;;4.97;2.40;;;31.00;96.00;;;;;;6178860;23;20376;-76
2022/08/25 11:47:44;;;;;;;5.40;2.47;;;31.10;96.30;;;;;;6181617;23;20752;-77
2022/08/25 11:50:33;;;;;;;7.32;2.60;;;31.20;96.70;;;;;;6181124;23;20369;-76
2022/08/25 11:53:18;;;;;;;9.18;2.60;;;31.20;97.10;;;;;;6181562;23;20369;-76
2022/08/25 11:55:44;;;;;;;3.17;2.10;;;30.80;96.80;;;;;;6181029;23;20365;-76
2022/08/25 11:58:30;;;;;;;5.47;2.40;;;31.20;96.40;;;;;;6179622;23;20373;-76
2022/08/25 12:00:59;;;;;;;4.43;2.40;;;31.50;96.40;;;;;;6181539;23;20400;-77
2022/08/25 12:03:31;;;;;;;7.88;2.83;;;31.60;96.20;;;;;;6156183;23;20374;-76
2022/08/25 12:06:25;;;;;;;7.57;2.90;;;31.70;95.80;;;;;;6181479;23;20370;-77
2022/08/25 12:09:03;;;;;;;5.60;2.97;;;32.10;95.70;;;;;;6181238;23;20397;-76
2022/08/25 12:11:42;;;;;;;4.93;2.60;;;32.30;96.10;;;;;;6156021;23;20739;-76
2022/08/25 12:14:20;;;;;;;5.55;2.60;;;32.20;95.50;;;;;;6180863;23;20839;-77
2022/08/25 12:16:55;;;;;;;9.00;2.70;;;31.80;95.10;;;;;;6156057;23;20431;-76
2022/08/25 12:19:35;;;;;;;5.55;2.58;;;31.90;95.90;;;;;;6181355;23;20372;-77
2022/08/25 12:22:01;;;;;;;6.13;2.85;;;32.30;95.00;;;;;;6181516;23;20425;-76
2022/08/25 12:24:42;;;;;;;7.20;3.10;;;31.90;95.70;;;;;;6157443;23;20377;-77
2022/08/25 12:27:33;;;;;;;4.45;2.53;;;32.70;95.40;;;;;;6156793;23;20923;-76
2022/08/25 12:30:17;;;;;;;7.20;2.80;;;32.50;94.50;;;;;;6181853;23;20372;-77
2022/08/25 12:32:57;;;;;;;6.30;2.70;;;32.60;94.70;;;;;;6157201;23;20693;-77
2022/08/25 12:35:56;;;;;;;5.20;2.60;;;32.60;94.20;;;;;;6157355;23;20381;-78
2022/08/25 12:38:44;;;;;;;4.78;2.60;;;32.20;93.60;;;;;;6180245;23;20377;-77
2022/08/25 12:41:13;;;;;;;6.88;2.65;;;32.60;94.70;;;;;;6157097;23;20381;-77
2022/08/25 12:43:42;;;;;;;7.20;2.72;;;32.20;94.40;;;;;;6181879;23;20376;-77
2022/08/25 12:46:38;;;;;;;6.73;2.60;;;32.90;95.10;;;;;;6155495;23;20855;-77
2022/08/25 12:49:31;;;;;;;5.25;2.60;;;32.80;93.70;;;;;;6180394;23;20377;-78
2022/08/25 12:52:06;;;;;;;5.25;2.60;;;32.20;93.10;;;;;;6156577;23;20372;-77
2022/08/25 12:55:04;;;;;;;5.88;2.70;;;32.90;94.20;;;;;;6181380;23;20400;-77
2022/08/25 12:57:44;;;;;;;4.40;2.50;;;33.40;93.90;;;;;;6107902;23;20361;-76
2022/08/25 13:00:27;;;;;;;7.65;2.60;;;33.60;94.00;;;;;;6157397;23;20445;-77
2022/08/25 13:03:44;;;;;;;8.73;2.77;;;33.10;93.20;;;;;;6156410;23;20394;-78
2022/08/25 13:06:35;;;;;;;4.32;2.50;;;32.60;92.50;;;;;;6156403;23;20365;-78
2022/08/25 13:09:26;;;;;;;6.75;3.10;;;32.50;93.20;;;;;;6158122;23;20401;-78
2022/08/25 13:12:29;;;;;;;5.20;2.83;;;33.00;93.10;;;;;;6157001;23;20672;-78
2022/08/25 13:14:56;;;;;;;4.28;2.47;;;33.10;93.10;;;;;;6158844;23;20373;-80
2022/08/25 13:17:31;;;;;;;3.97;2.40;;;32.60;93.30;;;;;;6181772;23;20376;-79
2022/08/25 13:20:22;;;;;;;5.07;2.42;;;32.30;93.10;;;;;;6179704;23;20373;-79
2022/08/25 13:22:50;;;;;;;10.80;2.35;;;32.30;93.10;;;;;;6181290;23;20429;-77
2022/08/25 13:25:18;;;;;;;6.88;2.70;;;32.00;93.00;;;;;;6180794;23;20374;-79
2022/08/25 13:27:48;;;;;;;4.90;2.30;;;32.30;93.20;;;;;;6181811;23;20392;-79
2022/08/25 13:30:23;;;;;;;5.30;2.47;;;31.90;92.70;;;;;;6181261;23;20376;-79